sensor_id;sensor_type;location;lat;lon;timestamp;P1;durP1;ratioP1;P2;durP2;ratioP2
85001;SDS011;75323;31.624;-8.002;2024-03-23T00:55:59;18.92;;;10.38;;
85001;SDS011;75323;31.624;-8.002;2024-03-23T00:58:26;21.42;;;12.10;;
85001;SDS011;75323;31.624;-8.002;2024-03-23T01:00:51;22.50;;;11.23;;
85001;SDS011;75323;31.624;-8.002;2024-03-23T01:03:17;18.83;;;12.55;;
85001;SDS011;75323;31.624;-8.002;2024-03-23T01:05:43;23.20;;;13.48;;
85001;SDS011;75323;31.624;-8.002;2024-03-23T01:08:09;16.75;;;10.15;;
85001;SDS011;75323;31.624;-8.002;2024-03-23T01:10:34;17.95;;;10.35;;
85001;SDS011;75323;31.624;-8.002;2024-03-23T01:13:00;16.88;;;9.82;;
85001;SDS011;75323;31.624;-8.002;2024-03-23T01:15:26;20.63;;;11.70;;
85001;SDS011;75323;31.624;-8.002;2024-03-23T01:17:52;17.00;;;10.68;;
85001;SDS011;75323;31.624;-8.002;2024-03-23T01:20:17;17.08;;;10.60;;
85001;SDS011;75323;31.624;-8.002;2024-03-23T01:22:43;20.83;;;10.05;;
85001;SDS011;75323;31.624;-8.002;2024-03-23T01:25:09;15.80;;;9.02;;
85001;SDS011;75323;31.624;-8.002;2024-03-23T01:27:35;16.85;;;10.15;;
85001;SDS011;75323;31.624;-8.002;2024-03-23T01:30:00;18.33;;;9.75;;
85001;SDS011;75323;31.624;-8.002;2024-03-23T01:32:26;21.75;;;10.48;;
85001;SDS011;75323;31.624;-8.002;2024-03-23T01:34:52;17.63;;;9.68;;
85001;SDS011;75323;31.624;-8.002;2024-03-23T01:37:17;18.55;;;9.07;;
85001;SDS011;75323;31.624;-8.002;2024-03-23T01:39:43;17.35;;;9.18;;
85001;SDS011;75323;31.624;-8.002;2024-03-23T01:42:09;19.60;;;9.13;;
85001;SDS011;75323;31.624;-8.002;2024-03-23T01:44:35;14.70;;;8.95;;
85001;SDS011;75323;31.624;-8.002;2024-03-23T01:47:00;15.77;;;9.45;;
85001;SDS011;75323;31.624;-8.002;2024-03-23T01:49:26;19.23;;;9.93;;
85001;SDS011;75323;31.624;-8.002;2024-03-23T01:51:52;20.98;;;10.45;;
85001;SDS011;75323;31.624;-8.002;2024-03-23T01:54:18;17.38;;;9.88;;
85001;SDS011;75323;31.624;-8.002;2024-03-23T01:56:44;16.95;;;9.75;;
85001;SDS011;75323;31.624;-8.002;2024-03-23T01:59:10;16.08;;;7.63;;
85001;SDS011;75323;31.624;-8.002;2024-03-23T02:01:35;19.85;;;9.02;;
85001;SDS011;75323;31.624;-8.002;2024-03-23T02:04:01;19.50;;;8.88;;
85001;SDS011;75323;31.624;-8.002;2024-03-23T02:06:27;16.45;;;9.05;;
85001;SDS011;75323;31.624;-8.002;2024-03-23T02:08:54;14.43;;;8.20;;
85001;SDS011;75323;31.624;-8.002;2024-03-23T02:11:20;18.23;;;8.10;;
85001;SDS011;75323;31.624;-8.002;2024-03-23T02:13:46;17.52;;;10.00;;
85001;SDS011;75323;31.624;-8.002;2024-03-23T02:16:12;16.20;;;9.75;;
85001;SDS011;75323;31.624;-8.002;2024-03-23T02:18:41;16.13;;;7.32;;
85001;SDS011;75323;31.624;-8.002;2024-03-23T02:21:06;17.38;;;8.95;;
85001;SDS011;75323;31.624;-8.002;2024-03-23T02:23:32;18.00;;;9.18;;
85001;SDS011;75323;31.624;-8.002;2024-03-23T02:25:58;13.90;;;6.75;;
85001;SDS011;75323;31.624;-8.002;2024-03-23T02:28:24;20.05;;;9.18;;
85001;SDS011;75323;31.624;-8.002;2024-03-23T02:30:49;15.48;;;7.65;;
85001;SDS011;75323;31.624;-8.002;2024-03-23T02:33:17;13.68;;;7.75;;
85001;SDS011;75323;31.624;-8.002;2024-03-23T02:35:44;14.45;;;7.30;;
85001;SDS011;75323;31.624;-8.002;2024-03-23T02:38:10;18.35;;;8.40;;
85001;SDS011;75323;31.624;-8.002;2024-03-23T02:40:36;14.27;;;10.05;;
85001;SDS011;75323;31.624;-8.002;2024-03-23T02:43:02;12.68;;;6.72;;
85001;SDS011;75323;31.624;-8.002;2024-03-23T02:45:29;14.95;;;8.55;;
85001;SDS011;75323;31.624;-8.002;2024-03-23T02:47:55;16.60;;;8.30;;
85001;SDS011;75323;31.624;-8.002;2024-03-23T02:50:21;14.57;;;8.18;;
85001;SDS011;75323;31.624;-8.002;2024-03-23T02:52:47;15.75;;;9.23;;
85001;SDS011;75323;31.624;-8.002;2024-03-23T02:55:13;15.35;;;7.88;;
85001;SDS011;75323;31.624;-8.002;2024-03-23T02:57:39;12.45;;;7.20;;
85001;SDS011;75323;31.624;-8.002;2024-03-23T03:00:05;18.30;;;8.18;;
85001;SDS011;75323;31.624;-8.002;2024-03-23T03:02:32;12.43;;;6.93;;
85001;SDS011;75323;31.624;-8.002;2024-03-23T03:04:59;16.48;;;7.95;;
85001;SDS011;75323;31.624;-8.002;2024-03-23T03:07:24;16.23;;;8.10;;
85001;SDS011;75323;31.624;-8.002;2024-03-23T03:09:50;13.23;;;7.03;;
85001;SDS011;75323;31.624;-8.002;2024-03-23T03:12:16;17.98;;;7.72;;
85001;SDS011;75323;31.624;-8.002;2024-03-23T03:14:42;15.00;;;8.30;;
85001;SDS011;75323;31.624;-8.002;2024-03-23T03:17:08;13.57;;;8.25;;
85001;SDS011;75323;31.624;-8.002;2024-03-23T03:19:34;14.68;;;8.68;;
85001;SDS011;75323;31.624;-8.002;2024-03-23T03:21:59;13.20;;;8.15;;
85001;SDS011;75323;31.624;-8.002;2024-03-23T03:24:25;15.48;;;8.43;;
85001;SDS011;75323;31.624;-8.002;2024-03-23T03:26:51;13.25;;;8.38;;
85001;SDS011;75323;31.624;-8.002;2024-03-23T03:29:17;19.80;;;8.32;;
85001;SDS011;75323;31.624;-8.002;2024-03-23T03:31:43;16.73;;;7.60;;
85001;SDS011;75323;31.624;-8.002;2024-03-23T03:34:09;21.33;;;9.10;;
85001;SDS011;75323;31.624;-8.002;2024-03-23T03:36:35;15.25;;;6.82;;
85001;SDS011;75323;31.624;-8.002;2024-03-23T03:39:01;15.05;;;7.97;;
85001;SDS011;75323;31.624;-8.002;2024-03-23T03:41:28;17.77;;;8.85;;
85001;SDS011;75323;31.624;-8.002;2024-03-23T03:43:54;16.40;;;8.20;;
85001;SDS011;75323;31.624;-8.002;2024-03-23T03:46:20;16.35;;;9.32;;
85001;SDS011;75323;31.624;-8.002;2024-03-23T03:48:46;14.35;;;7.78;;
85001;SDS011;75323;31.624;-8.002;2024-03-23T03:51:13;20.70;;;8.48;;
85001;SDS011;75323;31.624;-8.002;2024-03-23T03:53:39;17.40;;;8.88;;
85001;SDS011;75323;31.624;-8.002;2024-03-23T03:56:05;17.15;;;8.40;;
85001;SDS011;75323;31.624;-8.002;2024-03-23T03:58:31;17.58;;;7.97;;
85001;SDS011;75323;31.624;-8.002;2024-03-23T04:00:57;17.95;;;8.70;;
85001;SDS011;75323;31.624;-8.002;2024-03-23T04:03:23;15.82;;;8.48;;
85001;SDS011;75323;31.624;-8.002;2024-03-23T04:05:52;18.65;;;8.68;;
85001;SDS011;75323;31.624;-8.002;2024-03-23T04:08:19;22.23;;;9.40;;
85001;SDS011;75323;31.624;-8.002;2024-03-23T04:10:45;16.98;;;8.82;;
85001;SDS011;75323;31.624;-8.002;2024-03-23T04:13:11;21.88;;;9.60;;
85001;SDS011;75323;31.624;-8.002;2024-03-23T04:15:39;16.40;;;9.43;;
85001;SDS011;75323;31.624;-8.002;2024-03-23T04:18:05;17.77;;;8.10;;
85001;SDS011;75323;31.624;-8.002;2024-03-23T04:20:31;16.55;;;8.80;;
85001;SDS011;75323;31.624;-8.002;2024-03-23T04:22:58;16.70;;;8.80;;
85001;SDS011;75323;31.624;-8.002;2024-03-23T04:25:24;15.38;;;8.73;;
85001;SDS011;75323;31.624;-8.002;2024-03-23T04:27:50;14.30;;;9.57;;
85001;SDS011;75323;31.624;-8.002;2024-03-23T04:30:16;21.08;;;8.63;;
85001;SDS011;75323;31.624;-8.002;2024-03-23T04:32:42;16.20;;;9.95;;
85001;SDS011;75323;31.624;-8.002;2024-03-23T04:35:08;19.67;;;11.52;;
85001;SDS011;75323;31.624;-8.002;2024-03-23T04:37:38;28.25;;;15.75;;
85001;SDS011;75323;31.624;-8.002;2024-03-23T04:40:07;23.30;;;11.30;;
85001;SDS011;75323;31.624;-8.002;2024-03-23T04:42:33;21.33;;;9.52;;
85001;SDS011;75323;31.624;-8.002;2024-03-23T04:44:59;31.35;;;15.32;;
85001;SDS011;75323;31.624;-8.002;2024-03-23T04:47:26;25.60;;;13.50;;
85001;SDS011;75323;31.624;-8.002;2024-03-23T04:49:52;25.17;;;14.57;;
85001;SDS011;75323;31.624;-8.002;2024-03-23T04:52:17;18.42;;;11.07;;
85001;SDS011;75323;31.624;-8.002;2024-03-23T04:54:43;15.95;;;10.13;;
85001;SDS011;75323;31.624;-8.002;2024-03-23T04:57:10;16.85;;;10.13;;
85001;SDS011;75323;31.624;-8.002;2024-03-23T04:59:36;21.55;;;10.60;;
85001;SDS011;75323;31.624;-8.002;2024-03-23T05:02:02;22.33;;;9.23;;
85001;SDS011;75323;31.624;-8.002;2024-03-23T05:04:28;23.10;;;9.85;;
85001;SDS011;75323;31.624;-8.002;2024-03-23T05:06:53;17.20;;;10.02;;
85001;SDS011;75323;31.624;-8.002;2024-03-23T05:09:19;14.80;;;9.68;;
85001;SDS011;75323;31.624;-8.002;2024-03-23T05:11:46;18.70;;;8.57;;
85001;SDS011;75323;31.624;-8.002;2024-03-23T05:14:13;18.27;;;10.32;;
85001;SDS011;75323;31.624;-8.002;2024-03-23T05:16:39;17.25;;;9.85;;
85001;SDS011;75323;31.624;-8.002;2024-03-23T05:19:05;16.83;;;10.07;;
85001;SDS011;75323;31.624;-8.002;2024-03-23T05:21:31;15.18;;;9.52;;
85001;SDS011;75323;31.624;-8.002;2024-03-23T05:23:56;17.00;;;10.40;;
85001;SDS011;75323;31.624;-8.002;2024-03-23T05:26:22;21.85;;;10.65;;
85001;SDS011;75323;31.624;-8.002;2024-03-23T05:28:48;18.52;;;10.65;;
85001;SDS011;75323;31.624;-8.002;2024-03-23T05:31:23;19.83;;;10.70;;
85001;SDS011;75323;31.624;-8.002;2024-03-23T05:33:50;17.40;;;10.82;;
85001;SDS011;75323;31.624;-8.002;2024-03-23T05:36:16;20.00;;;9.90;;
85001;SDS011;75323;31.624;-8.002;2024-03-23T05:38:42;15.95;;;9.43;;
85001;SDS011;75323;31.624;-8.002;2024-03-23T05:41:08;15.75;;;9.77;;
85001;SDS011;75323;31.624;-8.002;2024-03-23T05:43:33;15.10;;;9.00;;
85001;SDS011;75323;31.624;-8.002;2024-03-23T05:46:00;19.77;;;10.20;;
85001;SDS011;75323;31.624;-8.002;2024-03-23T05:48:30;21.40;;;9.77;;
85001;SDS011;75323;31.624;-8.002;2024-03-23T05:50:56;19.88;;;11.13;;
85001;SDS011;75323;31.624;-8.002;2024-03-23T05:53:23;19.30;;;10.38;;
85001;SDS011;75323;31.624;-8.002;2024-03-23T05:55:49;24.23;;;10.52;;
85001;SDS011;75323;31.624;-8.002;2024-03-23T05:58:16;21.00;;;10.00;;
85001;SDS011;75323;31.624;-8.002;2024-03-23T06:00:42;21.98;;;11.68;;
85001;SDS011;75323;31.624;-8.002;2024-03-23T06:03:09;21.10;;;10.15;;
85001;SDS011;75323;31.624;-8.002;2024-03-23T06:05:38;19.80;;;10.07;;
85001;SDS011;75323;31.624;-8.002;2024-03-23T06:08:04;20.60;;;10.90;;
85001;SDS011;75323;31.624;-8.002;2024-03-23T06:10:30;16.20;;;10.02;;
85001;SDS011;75323;31.624;-8.002;2024-03-23T06:12:56;21.98;;;9.95;;
85001;SDS011;75323;31.624;-8.002;2024-03-23T06:15:24;19.40;;;10.35;;
85001;SDS011;75323;31.624;-8.002;2024-03-23T06:17:52;20.88;;;10.52;;
85001;SDS011;75323;31.624;-8.002;2024-03-23T06:20:18;23.27;;;10.32;;
85001;SDS011;75323;31.624;-8.002;2024-03-23T06:22:44;22.75;;;9.25;;
85001;SDS011;75323;31.624;-8.002;2024-03-23T06:25:09;23.38;;;10.20;;
85001;SDS011;75323;31.624;-8.002;2024-03-23T06:27:37;19.63;;;11.10;;
85001;SDS011;75323;31.624;-8.002;2024-03-23T06:30:04;20.17;;;10.65;;
85001;SDS011;75323;31.624;-8.002;2024-03-23T06:32:32;32.47;;;11.90;;
85001;SDS011;75323;31.624;-8.002;2024-03-23T06:34:58;19.45;;;10.85;;
85001;SDS011;75323;31.624;-8.002;2024-03-23T06:37:24;19.45;;;10.65;;
85001;SDS011;75323;31.624;-8.002;2024-03-23T06:39:49;32.40;;;13.77;;
85001;SDS011;75323;31.624;-8.002;2024-03-23T06:42:15;23.88;;;13.38;;
85001;SDS011;75323;31.624;-8.002;2024-03-23T06:44:41;32.70;;;15.27;;
85001;SDS011;75323;31.624;-8.002;2024-03-23T06:47:07;26.75;;;13.50;;
85001;SDS011;75323;31.624;-8.002;2024-03-23T06:49:32;27.00;;;13.45;;
85001;SDS011;75323;31.624;-8.002;2024-03-23T06:51:58;25.38;;;13.48;;
85001;SDS011;75323;31.624;-8.002;2024-03-23T06:54:24;29.63;;;14.18;;
85001;SDS011;75323;31.624;-8.002;2024-03-23T06:56:51;27.55;;;15.20;;
85001;SDS011;75323;31.624;-8.002;2024-03-23T06:59:17;27.08;;;13.60;;
85001;SDS011;75323;31.624;-8.002;2024-03-23T07:01:43;26.30;;;12.52;;
85001;SDS011;75323;31.624;-8.002;2024-03-23T07:04:09;24.55;;;14.27;;
85001;SDS011;75323;31.624;-8.002;2024-03-23T07:06:41;20.98;;;10.55;;
85001;SDS011;75323;31.624;-8.002;2024-03-23T07:09:08;23.83;;;12.02;;
85001;SDS011;75323;31.624;-8.002;2024-03-23T07:11:34;28.45;;;12.05;;
85001;SDS011;75323;31.624;-8.002;2024-03-23T07:14:00;28.65;;;11.45;;
85001;SDS011;75323;31.624;-8.002;2024-03-23T07:16:29;19.02;;;11.75;;
85001;SDS011;75323;31.624;-8.002;2024-03-23T07:18:55;24.65;;;10.50;;
85001;SDS011;75323;31.624;-8.002;2024-03-23T07:21:21;22.05;;;11.38;;
85001;SDS011;75323;31.624;-8.002;2024-03-23T07:23:47;20.40;;;10.75;;
85001;SDS011;75323;31.624;-8.002;2024-03-23T07:26:13;18.67;;;10.75;;
85001;SDS011;75323;31.624;-8.002;2024-03-23T07:28:39;20.58;;;11.15;;
85001;SDS011;75323;31.624;-8.002;2024-03-23T07:31:12;21.95;;;10.82;;
85001;SDS011;75323;31.624;-8.002;2024-03-23T07:33:42;19.02;;;10.68;;
85001;SDS011;75323;31.624;-8.002;2024-03-23T07:36:09;23.98;;;12.35;;
85001;SDS011;75323;31.624;-8.002;2024-03-23T07:38:35;21.20;;;10.85;;
85001;SDS011;75323;31.624;-8.002;2024-03-23T07:43:30;24.30;;;11.43;;
85001;SDS011;75323;31.624;-8.002;2024-03-23T07:45:56;21.15;;;11.07;;
85001;SDS011;75323;31.624;-8.002;2024-03-23T07:48:22;21.50;;;11.27;;
85001;SDS011;75323;31.624;-8.002;2024-03-23T07:51:04;21.92;;;11.68;;
85001;SDS011;75323;31.624;-8.002;2024-03-23T07:53:34;25.25;;;11.73;;
85001;SDS011;75323;31.624;-8.002;2024-03-23T07:56:02;21.08;;;12.70;;
85001;SDS011;75323;31.624;-8.002;2024-03-23T07:58:30;24.15;;;13.48;;
85001;SDS011;75323;31.624;-8.002;2024-03-23T08:00:56;23.23;;;14.10;;
85001;SDS011;75323;31.624;-8.002;2024-03-23T08:03:26;25.65;;;14.20;;
85001;SDS011;75323;31.624;-8.002;2024-03-23T08:05:52;31.98;;;13.55;;
85001;SDS011;75323;31.624;-8.002;2024-03-23T08:08:18;23.40;;;13.45;;
85001;SDS011;75323;31.624;-8.002;2024-03-23T08:10:47;25.13;;;13.77;;
85001;SDS011;75323;31.624;-8.002;2024-03-23T08:13:17;26.65;;;13.13;;
85001;SDS011;75323;31.624;-8.002;2024-03-23T08:15:43;24.48;;;12.32;;
85001;SDS011;75323;31.624;-8.002;2024-03-23T08:18:12;25.15;;;14.73;;
85001;SDS011;75323;31.624;-8.002;2024-03-23T08:20:38;31.17;;;15.95;;
85001;SDS011;75323;31.624;-8.002;2024-03-23T08:23:07;27.27;;;16.15;;
85001;SDS011;75323;31.624;-8.002;2024-03-23T08:25:33;27.55;;;14.98;;
85001;SDS011;75323;31.624;-8.002;2024-03-23T08:27:59;27.80;;;15.07;;
85001;SDS011;75323;31.624;-8.002;2024-03-23T08:30:25;30.92;;;14.07;;
85001;SDS011;75323;31.624;-8.002;2024-03-23T08:32:51;29.40;;;13.25;;
85001;SDS011;75323;31.624;-8.002;2024-03-23T08:35:17;28.65;;;14.50;;
85001;SDS011;75323;31.624;-8.002;2024-03-23T08:37:43;29.65;;;13.27;;
85001;SDS011;75323;31.624;-8.002;2024-03-23T08:40:08;28.90;;;13.30;;
85001;SDS011;75323;31.624;-8.002;2024-03-23T08:42:35;29.50;;;13.63;;
85001;SDS011;75323;31.624;-8.002;2024-03-23T08:45:01;27.10;;;13.50;;
85001;SDS011;75323;31.624;-8.002;2024-03-23T08:47:26;31.05;;;14.07;;
85001;SDS011;75323;31.624;-8.002;2024-03-23T08:49:52;29.45;;;14.18;;
85001;SDS011;75323;31.624;-8.002;2024-03-23T08:52:18;22.55;;;14.05;;
85001;SDS011;75323;31.624;-8.002;2024-03-23T08:54:44;24.77;;;13.35;;
85001;SDS011;75323;31.624;-8.002;2024-03-23T08:57:09;25.05;;;12.80;;
85001;SDS011;75323;31.624;-8.002;2024-03-23T08:59:37;22.85;;;12.15;;
85001;SDS011;75323;31.624;-8.002;2024-03-23T09:02:03;28.27;;;13.20;;
85001;SDS011;75323;31.624;-8.002;2024-03-23T09:04:29;22.98;;;12.35;;
85001;SDS011;75323;31.624;-8.002;2024-03-23T09:06:55;24.45;;;12.23;;
85001;SDS011;75323;31.624;-8.002;2024-03-23T09:09:22;25.00;;;11.48;;
85001;SDS011;75323;31.624;-8.002;2024-03-23T09:11:48;25.88;;;11.95;;
85001;SDS011;75323;31.624;-8.002;2024-03-23T09:14:14;24.83;;;11.48;;
85001;SDS011;75323;31.624;-8.002;2024-03-23T09:16:40;22.48;;;10.82;;
85001;SDS011;75323;31.624;-8.002;2024-03-23T09:19:05;23.48;;;10.95;;
85001;SDS011;75323;31.624;-8.002;2024-03-23T09:21:31;19.90;;;10.52;;
85001;SDS011;75323;31.624;-8.002;2024-03-23T09:23:57;21.08;;;10.23;;
85001;SDS011;75323;31.624;-8.002;2024-03-23T09:26:23;15.82;;;9.25;;
85001;SDS011;75323;31.624;-8.002;2024-03-23T09:28:49;26.50;;;11.32;;
85001;SDS011;75323;31.624;-8.002;2024-03-23T09:31:14;21.98;;;10.73;;
85001;SDS011;75323;31.624;-8.002;2024-03-23T09:33:40;20.02;;;10.82;;
85001;SDS011;75323;31.624;-8.002;2024-03-23T09:36:07;26.05;;;10.68;;
85001;SDS011;75323;31.624;-8.002;2024-03-23T09:38:34;19.30;;;10.95;;
85001;SDS011;75323;31.624;-8.002;2024-03-23T09:41:00;18.35;;;10.80;;
85001;SDS011;75323;31.624;-8.002;2024-03-23T09:43:28;20.08;;;11.70;;
85001;SDS011;75323;31.624;-8.002;2024-03-23T09:45:54;26.77;;;12.20;;
85001;SDS011;75323;31.624;-8.002;2024-03-23T09:48:20;18.88;;;10.80;;
85001;SDS011;75323;31.624;-8.002;2024-03-23T09:50:46;26.13;;;11.77;;
85001;SDS011;75323;31.624;-8.002;2024-03-23T09:53:14;26.67;;;11.63;;
85001;SDS011;75323;31.624;-8.002;2024-03-23T09:55:40;22.45;;;10.27;;
85001;SDS011;75323;31.624;-8.002;2024-03-23T09:58:07;23.88;;;10.55;;
85001;SDS011;75323;31.624;-8.002;2024-03-23T10:00:33;19.80;;;10.57;;
85001;SDS011;75323;31.624;-8.002;2024-03-23T10:03:00;24.45;;;10.27;;
85001;SDS011;75323;31.624;-8.002;2024-03-23T10:05:31;21.70;;;9.70;;
85001;SDS011;75323;31.624;-8.002;2024-03-23T10:07:57;22.10;;;10.05;;
85001;SDS011;75323;31.624;-8.002;2024-03-23T10:10:25;20.42;;;9.80;;
85001;SDS011;75323;31.624;-8.002;2024-03-23T10:12:51;22.00;;;11.35;;
85001;SDS011;75323;31.624;-8.002;2024-03-23T10:15:20;26.98;;;11.98;;
85001;SDS011;75323;31.624;-8.002;2024-03-23T10:17:47;24.10;;;11.35;;
85001;SDS011;75323;31.624;-8.002;2024-03-23T10:20:13;26.00;;;10.32;;
85001;SDS011;75323;31.624;-8.002;2024-03-23T10:22:45;21.92;;;10.57;;
85001;SDS011;75323;31.624;-8.002;2024-03-23T10:25:11;22.95;;;11.02;;
85001;SDS011;75323;31.624;-8.002;2024-03-23T10:27:39;18.33;;;10.60;;
85001;SDS011;75323;31.624;-8.002;2024-03-23T10:30:11;24.73;;;9.57;;
85001;SDS011;75323;31.624;-8.002;2024-03-23T10:32:39;24.60;;;10.30;;
85001;SDS011;75323;31.624;-8.002;2024-03-23T10:37:44;25.80;;;11.07;;
85001;SDS011;75323;31.624;-8.002;2024-03-23T10:40:14;20.75;;;8.48;;
85001;SDS011;75323;31.624;-8.002;2024-03-23T10:42:40;30.55;;;11.07;;
85001;SDS011;75323;31.624;-8.002;2024-03-23T10:45:08;16.70;;;10.38;;
85001;SDS011;75323;31.624;-8.002;2024-03-23T10:47:34;24.75;;;10.73;;
85001;SDS011;75323;31.624;-8.002;2024-03-23T10:50:01;20.65;;;9.82;;
85001;SDS011;75323;31.624;-8.002;2024-03-23T10:52:32;23.13;;;10.82;;
85001;SDS011;75323;31.624;-8.002;2024-03-23T10:54:58;34.45;;;10.25;;
85001;SDS011;75323;31.624;-8.002;2024-03-23T10:57:42;18.45;;;8.80;;
85001;SDS011;75323;31.624;-8.002;2024-03-23T11:00:11;20.95;;;9.68;;
85001;SDS011;75323;31.624;-8.002;2024-03-23T11:02:37;23.55;;;9.60;;
85001;SDS011;75323;31.624;-8.002;2024-03-23T11:05:48;18.70;;;8.95;;
85001;SDS011;75323;31.624;-8.002;2024-03-23T11:07:49;22.33;;;10.38;;
85001;SDS011;75323;31.624;-8.002;2024-03-23T11:10:30;14.52;;;8.80;;
85001;SDS011;75323;31.624;-8.002;2024-03-23T11:12:58;78.10;;;17.48;;
85001;SDS011;75323;31.624;-8.002;2024-03-23T11:15:24;24.85;;;9.77;;
85001;SDS011;75323;31.624;-8.002;2024-03-23T11:18:06;19.23;;;10.82;;
85001;SDS011;75323;31.624;-8.002;2024-03-23T11:20:37;23.90;;;11.52;;
85001;SDS011;75323;31.624;-8.002;2024-03-23T11:23:03;21.33;;;11.52;;
85001;SDS011;75323;31.624;-8.002;2024-03-23T11:25:29;26.67;;;10.32;;
85001;SDS011;75323;31.624;-8.002;2024-03-23T11:27:56;20.83;;;12.38;;
85001;SDS011;75323;31.624;-8.002;2024-03-23T11:32:50;17.67;;;9.23;;
85001;SDS011;75323;31.624;-8.002;2024-03-23T11:35:29;28.85;;;11.60;;
85001;SDS011;75323;31.624;-8.002;2024-03-23T11:38:07;20.42;;;10.13;;
85001;SDS011;75323;31.624;-8.002;2024-03-23T11:40:38;17.55;;;9.07;;
85001;SDS011;75323;31.624;-8.002;2024-03-23T11:43:08;21.25;;;9.73;;
85001;SDS011;75323;31.624;-8.002;2024-03-23T11:48:09;23.45;;;10.02;;
85001;SDS011;75323;31.624;-8.002;2024-03-23T11:50:42;22.75;;;9.85;;
85001;SDS011;75323;31.624;-8.002;2024-03-23T11:53:12;24.35;;;11.82;;
85001;SDS011;75323;31.624;-8.002;2024-03-23T11:58:11;21.23;;;11.15;;
85001;SDS011;75323;31.624;-8.002;2024-03-23T12:00:37;23.98;;;10.40;;
85001;SDS011;75323;31.624;-8.002;2024-03-23T12:03:03;16.98;;;9.18;;
85001;SDS011;75323;31.624;-8.002;2024-03-23T12:05:30;18.60;;;10.32;;
85001;SDS011;75323;31.624;-8.002;2024-03-23T12:11:08;23.77;;;10.63;;
85001;SDS011;75323;31.624;-8.002;2024-03-23T12:13:35;27.08;;;9.70;;
85001;SDS011;75323;31.624;-8.002;2024-03-23T12:16:11;19.77;;;8.88;;
85001;SDS011;75323;31.624;-8.002;2024-03-23T12:18:42;16.00;;;9.27;;
85001;SDS011;75323;31.624;-8.002;2024-03-23T12:21:09;18.13;;;9.63;;
85001;SDS011;75323;31.624;-8.002;2024-03-23T12:23:35;19.08;;;8.65;;
85001;SDS011;75323;31.624;-8.002;2024-03-23T12:26:01;24.38;;;8.68;;
85001;SDS011;75323;31.624;-8.002;2024-03-23T12:28:27;19.20;;;10.10;;
85001;SDS011;75323;31.624;-8.002;2024-03-23T12:30:53;20.35;;;9.02;;
85001;SDS011;75323;31.624;-8.002;2024-03-23T12:33:19;20.10;;;9.68;;
85001;SDS011;75323;31.624;-8.002;2024-03-23T12:35:46;17.60;;;8.70;;
85001;SDS011;75323;31.624;-8.002;2024-03-23T12:38:19;15.65;;;8.68;;
85001;SDS011;75323;31.624;-8.002;2024-03-23T12:40:50;18.38;;;9.40;;
85001;SDS011;75323;31.624;-8.002;2024-03-23T12:43:16;18.38;;;9.75;;
85001;SDS011;75323;31.624;-8.002;2024-03-23T12:45:46;15.88;;;7.78;;
85001;SDS011;75323;31.624;-8.002;2024-03-23T12:48:15;18.33;;;8.13;;
85001;SDS011;75323;31.624;-8.002;2024-03-23T12:50:41;19.88;;;8.93;;
85001;SDS011;75323;31.624;-8.002;2024-03-23T12:53:07;20.27;;;10.27;;
85001;SDS011;75323;31.624;-8.002;2024-03-23T12:55:35;18.13;;;7.25;;
85001;SDS011;75323;31.624;-8.002;2024-03-23T12:58:01;21.83;;;8.52;;
85001;SDS011;75323;31.624;-8.002;2024-03-23T13:00:28;17.55;;;8.02;;
85001;SDS011;75323;31.624;-8.002;2024-03-23T13:02:53;21.52;;;8.65;;
85001;SDS011;75323;31.624;-8.002;2024-03-23T13:05:19;21.15;;;9.43;;
85001;SDS011;75323;31.624;-8.002;2024-03-23T13:07:45;27.00;;;11.45;;
85001;SDS011;75323;31.624;-8.002;2024-03-23T13:10:11;23.15;;;10.65;;
85001;SDS011;75323;31.624;-8.002;2024-03-23T13:12:36;23.27;;;11.18;;
85001;SDS011;75323;31.624;-8.002;2024-03-23T13:15:02;29.77;;;12.95;;
85001;SDS011;75323;31.624;-8.002;2024-03-23T13:17:29;27.33;;;11.43;;
85001;SDS011;75323;31.624;-8.002;2024-03-23T13:19:54;31.80;;;11.27;;
85001;SDS011;75323;31.624;-8.002;2024-03-23T13:22:23;28.80;;;11.55;;
85001;SDS011;75323;31.624;-8.002;2024-03-23T13:24:49;29.80;;;13.32;;
85001;SDS011;75323;31.624;-8.002;2024-03-23T13:27:15;28.27;;;14.38;;
85001;SDS011;75323;31.624;-8.002;2024-03-23T13:29:41;24.05;;;12.13;;
85001;SDS011;75323;31.624;-8.002;2024-03-23T13:32:07;24.48;;;11.73;;
85001;SDS011;75323;31.624;-8.002;2024-03-23T13:34:33;26.20;;;11.60;;
85001;SDS011;75323;31.624;-8.002;2024-03-23T13:37:00;25.48;;;10.18;;
85001;SDS011;75323;31.624;-8.002;2024-03-23T13:39:26;24.17;;;11.70;;
85001;SDS011;75323;31.624;-8.002;2024-03-23T13:41:54;26.15;;;11.40;;
85001;SDS011;75323;31.624;-8.002;2024-03-23T13:44:23;25.25;;;11.07;;
85001;SDS011;75323;31.624;-8.002;2024-03-23T13:46:49;28.23;;;12.32;;
85001;SDS011;75323;31.624;-8.002;2024-03-23T13:49:25;27.75;;;12.82;;
85001;SDS011;75323;31.624;-8.002;2024-03-23T13:51:54;30.88;;;10.80;;
85001;SDS011;75323;31.624;-8.002;2024-03-23T13:54:22;26.15;;;10.80;;
85001;SDS011;75323;31.624;-8.002;2024-03-23T13:56:49;26.90;;;9.65;;
85001;SDS011;75323;31.624;-8.002;2024-03-23T13:59:16;26.85;;;10.85;;
85001;SDS011;75323;31.624;-8.002;2024-03-23T14:01:42;20.70;;;9.40;;
85001;SDS011;75323;31.624;-8.002;2024-03-23T14:04:08;15.07;;;7.68;;
85001;SDS011;75323;31.624;-8.002;2024-03-23T14:06:34;28.55;;;8.23;;
85001;SDS011;75323;31.624;-8.002;2024-03-23T14:09:00;15.88;;;6.97;;
85001;SDS011;75323;31.624;-8.002;2024-03-23T14:11:28;18.02;;;8.40;;
85001;SDS011;75323;31.624;-8.002;2024-03-23T14:13:55;16.00;;;6.72;;
85001;SDS011;75323;31.624;-8.002;2024-03-23T14:16:21;12.90;;;6.53;;
85001;SDS011;75323;31.624;-8.002;2024-03-23T14:18:47;12.77;;;6.97;;
85001;SDS011;75323;31.624;-8.002;2024-03-23T14:21:13;13.98;;;7.40;;
85001;SDS011;75323;31.624;-8.002;2024-03-23T14:23:38;20.15;;;6.45;;
85001;SDS011;75323;31.624;-8.002;2024-03-23T14:26:06;20.67;;;7.88;;
85001;SDS011;75323;31.624;-8.002;2024-03-23T14:28:32;18.20;;;7.32;;
85001;SDS011;75323;31.624;-8.002;2024-03-23T14:30:58;16.65;;;7.45;;
85001;SDS011;75323;31.624;-8.002;2024-03-23T14:33:24;12.95;;;6.18;;
85001;SDS011;75323;31.624;-8.002;2024-03-23T14:35:53;13.52;;;6.00;;
85001;SDS011;75323;31.624;-8.002;2024-03-23T14:38:20;15.38;;;5.22;;
85001;SDS011;75323;31.624;-8.002;2024-03-23T14:40:46;13.65;;;7.20;;
85001;SDS011;75323;31.624;-8.002;2024-03-23T14:43:12;13.68;;;6.63;;
85001;SDS011;75323;31.624;-8.002;2024-03-23T14:46:25;13.85;;;6.32;;
85001;SDS011;75323;31.624;-8.002;2024-03-23T14:48:32;14.82;;;6.53;;
85001;SDS011;75323;31.624;-8.002;2024-03-23T14:50:59;15.48;;;5.30;;
85001;SDS011;75323;31.624;-8.002;2024-03-23T14:53:25;12.68;;;4.80;;
85001;SDS011;75323;31.624;-8.002;2024-03-23T14:55:55;22.95;;;6.38;;
85001;SDS011;75323;31.624;-8.002;2024-03-23T14:58:25;13.77;;;7.57;;
85001;SDS011;75323;31.624;-8.002;2024-03-23T15:00:50;15.25;;;6.38;;
85001;SDS011;75323;31.624;-8.002;2024-03-23T15:03:19;15.63;;;6.68;;
85001;SDS011;75323;31.624;-8.002;2024-03-23T15:05:54;12.55;;;5.57;;
85001;SDS011;75323;31.624;-8.002;2024-03-23T15:08:21;15.73;;;8.05;;
85001;SDS011;75323;31.624;-8.002;2024-03-23T15:10:46;17.98;;;7.10;;
85001;SDS011;75323;31.624;-8.002;2024-03-23T15:13:12;13.20;;;8.45;;
85001;SDS011;75323;31.624;-8.002;2024-03-23T15:15:40;11.98;;;7.03;;
85001;SDS011;75323;31.624;-8.002;2024-03-23T15:18:09;21.58;;;5.35;;
85001;SDS011;75323;31.624;-8.002;2024-03-23T15:20:38;11.35;;;6.45;;
85001;SDS011;75323;31.624;-8.002;2024-03-23T15:23:04;19.98;;;6.90;;